sensor_id;sensor_type;location;lat;lon;timestamp;pressure;altitude;pressure_sealevel;temperature;humidity
61128;BME280;47013;42.664;23.242;2024-03-08T00:01:39;93988.50;;;6.06;100.00
61128;BME280;47013;42.664;23.242;2024-03-08T00:04:05;93987.38;;;6.10;100.00
61128;BME280;47013;42.664;23.242;2024-03-08T00:06:31;93973.88;;;6.03;100.00
61128;BME280;47013;42.664;23.242;2024-03-08T00:08:57;93987.34;;;6.03;100.00
61128;BME280;47013;42.664;23.242;2024-03-08T00:11:22;93975.81;;;6.03;100.00
61128;BME280;47013;42.664;23.242;2024-03-08T00:13:51;93985.19;;;5.75;100.00
61128;BME280;47013;42.664;23.242;2024-03-08T00:16:17;93988.88;;;5.56;100.00
61128;BME280;47013;42.664;23.242;2024-03-08T00:18:44;93982.91;;;5.33;100.00
61128;BME280;47013;42.664;23.242;2024-03-08T00:21:10;93979.81;;;5.31;100.00
61128;BME280;47013;42.664;23.242;2024-03-08T00:23:37;93984.41;;;5.27;100.00
61128;BME280;47013;42.664;23.242;2024-03-08T00:26:02;93982.59;;;5.42;100.00
61128;BME280;47013;42.664;23.242;2024-03-08T00:28:29;93980.31;;;5.44;100.00
61128;BME280;47013;42.664;23.242;2024-03-08T00:30:56;93975.44;;;5.56;100.00
61128;BME280;47013;42.664;23.242;2024-03-08T00:33:21;93972.41;;;5.61;100.00
61128;BME280;47013;42.664;23.242;2024-03-08T00:35:46;93982.84;;;5.70;100.00
61128;BME280;47013;42.664;23.242;2024-03-08T00:38:12;93974.47;;;5.79;100.00
61128;BME280;47013;42.664;23.242;2024-03-08T00:40:38;93973.31;;;5.80;100.00
61128;BME280;47013;42.664;23.242;2024-03-08T00:43:05;93970.69;;;5.87;100.00
61128;BME280;47013;42.664;23.242;2024-03-08T00:45:31;93965.34;;;5.90;100.00
61128;BME280;47013;42.664;23.242;2024-03-08T00:47:56;93973.06;;;5.96;100.00
61128;BME280;47013;42.664;23.242;2024-03-08T00:50:21;93970.41;;;5.99;100.00
61128;BME280;47013;42.664;23.242;2024-03-08T00:52:47;93959.97;;;5.94;100.00
61128;BME280;47013;42.664;23.242;2024-03-08T00:55:12;93954.16;;;5.88;100.00
61128;BME280;47013;42.664;23.242;2024-03-08T00:57:38;93954.94;;;5.89;100.00
61128;BME280;47013;42.664;23.242;2024-03-08T01:00:05;93953.81;;;5.90;100.00
61128;BME280;47013;42.664;23.242;2024-03-08T01:02:35;93957.66;;;5.93;100.00
61128;BME280;47013;42.664;23.242;2024-03-08T01:05:01;93951.53;;;5.96;100.00
61128;BME280;47013;42.664;23.242;2024-03-08T01:07:26;93958.06;;;5.98;100.00
61128;BME280;47013;42.664;23.242;2024-03-08T01:09:52;93948.06;;;5.99;100.00
61128;BME280;47013;42.664;23.242;2024-03-08T01:12:17;93952.69;;;5.98;100.00
61128;BME280;47013;42.664;23.242;2024-03-08T01:14:43;93955.81;;;6.04;100.00
61128;BME280;47013;42.664;23.242;2024-03-08T01:17:08;93942.69;;;5.99;100.00
61128;BME280;47013;42.664;23.242;2024-03-08T01:19:35;93946.53;;;5.98;100.00
61128;BME280;47013;42.664;23.242;2024-03-08T01:22:00;93945.81;;;6.01;100.00
61128;BME280;47013;42.664;23.242;2024-03-08T01:24:25;93948.88;;;6.03;100.00
61128;BME280;47013;42.664;23.242;2024-03-08T01:26:51;93944.25;;;6.00;100.00
61128;BME280;47013;42.664;23.242;2024-03-08T01:29:16;93938.47;;;5.98;100.00
61128;BME280;47013;42.664;23.242;2024-03-08T01:31:42;93935.75;;;5.94;100.00
61128;BME280;47013;42.664;23.242;2024-03-08T01:34:08;93931.13;;;5.91;100.00
61128;BME280;47013;42.664;23.242;2024-03-08T01:36:33;93938.44;;;5.90;100.00
61128;BME280;47013;42.664;23.242;2024-03-08T01:38:58;93937.97;;;5.85;100.00
61128;BME280;47013;42.664;23.242;2024-03-08T01:41:24;93937.19;;;5.84;100.00
61128;BME280;47013;42.664;23.242;2024-03-08T01:43:49;93931.81;;;5.84;100.00
61128;BME280;47013;42.664;23.242;2024-03-08T01:46:18;93940.25;;;5.79;100.00
61128;BME280;47013;42.664;23.242;2024-03-08T01:48:44;93934.78;;;5.69;100.00
61128;BME280;47013;42.664;23.242;2024-03-08T01:51:10;93929.28;;;5.47;100.00
61128;BME280;47013;42.664;23.242;2024-03-08T01:53:37;93939.00;;;5.62;100.00
61128;BME280;47013;42.664;23.242;2024-03-08T01:56:03;93929.41;;;5.65;100.00
61128;BME280;47013;42.664;23.242;2024-03-08T01:58:29;93930.84;;;5.52;100.00
61128;BME280;47013;42.664;23.242;2024-03-08T02:00:56;93928.16;;;5.52;100.00
61128;BME280;47013;42.664;23.242;2024-03-08T02:03:23;93926.63;;;5.58;100.00
61128;BME280;47013;42.664;23.242;2024-03-08T02:05:48;93928.97;;;5.59;100.00
61128;BME280;47013;42.664;23.242;2024-03-08T02:08:15;93925.16;;;5.60;100.00
61128;BME280;47013;42.664;23.242;2024-03-08T02:10:41;93925.56;;;5.70;100.00
61128;BME280;47013;42.664;23.242;2024-03-08T02:13:09;93931.31;;;5.65;100.00
61128;BME280;47013;42.664;23.242;2024-03-08T02:15:57;93930.09;;;5.58;100.00
61128;BME280;47013;42.664;23.242;2024-03-08T02:18:24;93925.53;;;5.62;100.00
61128;BME280;47013;42.664;23.242;2024-03-08T02:20:54;93932.88;;;5.73;100.00
61128;BME280;47013;42.664;23.242;2024-03-08T02:23:20;93927.94;;;5.78;100.00
61128;BME280;47013;42.664;23.242;2024-03-08T02:25:46;93922.56;;;5.75;100.00
61128;BME280;47013;42.664;23.242;2024-03-08T02:28:12;93929.16;;;5.88;100.00
61128;BME280;47013;42.664;23.242;2024-03-08T02:30:38;93925.72;;;5.87;100.00
61128;BME280;47013;42.664;23.242;2024-03-08T02:33:04;93927.66;;;5.90;100.00
61128;BME280;47013;42.664;23.242;2024-03-08T02:35:30;93927.09;;;5.67;100.00
61128;BME280;47013;42.664;23.242;2024-03-08T02:37:55;93936.72;;;5.72;100.00
61128;BME280;47013;42.664;23.242;2024-03-08T02:40:21;93939.78;;;5.67;100.00
61128;BME280;47013;42.664;23.242;2024-03-08T02:42:47;93939.97;;;5.44;100.00
61128;BME280;47013;42.664;23.242;2024-03-08T02:45:13;93935.72;;;5.39;100.00
61128;BME280;47013;42.664;23.242;2024-03-08T02:47:38;93936.16;;;5.45;100.00
61128;BME280;47013;42.664;23.242;2024-03-08T02:50:04;93934.69;;;5.54;100.00
61128;BME280;47013;42.664;23.242;2024-03-08T02:52:35;93942.34;;;5.49;100.00
61128;BME280;47013;42.664;23.242;2024-03-08T02:55:02;93936.53;;;5.47;100.00
61128;BME280;47013;42.664;23.242;2024-03-08T02:57:27;93933.41;;;5.38;100.00
61128;BME280;47013;42.664;23.242;2024-03-08T02:59:56;93935.91;;;5.16;100.00
61128;BME280;47013;42.664;23.242;2024-03-08T03:02:21;93944.31;;;5.11;100.00
61128;BME280;47013;42.664;23.242;2024-03-08T03:04:48;93934.25;;;5.01;100.00
61128;BME280;47013;42.664;23.242;2024-03-08T03:07:13;93939.44;;;4.83;100.00
61128;BME280;47013;42.664;23.242;2024-03-08T03:09:39;93931.97;;;4.66;100.00
61128;BME280;47013;42.664;23.242;2024-03-08T03:12:04;93938.06;;;4.63;100.00
61128;BME280;47013;42.664;23.242;2024-03-08T03:14:30;93943.47;;;4.66;100.00
61128;BME280;47013;42.664;23.242;2024-03-08T03:16:55;93938.09;;;4.66;100.00
61128;BME280;47013;42.664;23.242;2024-03-08T03:19:20;93944.84;;;4.53;100.00
61128;BME280;47013;42.664;23.242;2024-03-08T03:21:46;93942.50;;;4.48;100.00
61128;BME280;47013;42.664;23.242;2024-03-08T03:24:12;93941.78;;;4.51;100.00
61128;BME280;47013;42.664;23.242;2024-03-08T03:26:41;93948.84;;;4.66;100.00
61128;BME280;47013;42.664;23.242;2024-03-08T03:29:08;93948.19;;;4.77;100.00
61128;BME280;47013;42.664;23.242;2024-03-08T03:31:34;93952.53;;;4.88;100.00
61128;BME280;47013;42.664;23.242;2024-03-08T03:34:01;93960.88;;;4.80;100.00
61128;BME280;47013;42.664;23.242;2024-03-08T03:36:31;93959.13;;;4.94;100.00
61128;BME280;47013;42.664;23.242;2024-03-08T03:38:57;93964.97;;;5.03;100.00
61128;BME280;47013;42.664;23.242;2024-03-08T03:41:30;93963.06;;;5.04;100.00
61128;BME280;47013;42.664;23.242;2024-03-08T03:43:56;93961.09;;;4.97;100.00
61128;BME280;47013;42.664;23.242;2024-03-08T03:46:21;93959.91;;;4.95;100.00
61128;BME280;47013;42.664;23.242;2024-03-08T03:48:46;93973.44;;;5.06;100.00
61128;BME280;47013;42.664;23.242;2024-03-08T03:51:12;93972.66;;;5.05;100.00
61128;BME280;47013;42.664;23.242;2024-03-08T03:53:37;93971.50;;;5.06;100.00
61128;BME280;47013;42.664;23.242;2024-03-08T03:56:03;93965.34;;;5.02;100.00
61128;BME280;47013;42.664;23.242;2024-03-08T03:58:32;93975.84;;;5.18;100.00
61128;BME280;47013;42.664;23.242;2024-03-08T04:00:57;93973.94;;;5.18;100.00
61128;BME280;47013;42.664;23.242;2024-03-08T04:03:23;93979.81;;;5.31;100.00
61128;BME280;47013;42.664;23.242;2024-03-08T04:05:48;93983.72;;;5.37;100.00
61128;BME280;47013;42.664;23.242;2024-03-08T04:08:14;93989.53;;;5.43;100.00
61128;BME280;47013;42.664;23.242;2024-03-08T04:10:40;93989.00;;;5.26;100.00
61128;BME280;47013;42.664;23.242;2024-03-08T04:13:07;93989.03;;;5.30;100.00
61128;BME280;47013;42.664;23.242;2024-03-08T04:15:32;93986.34;;;5.30;100.00
61128;BME280;47013;42.664;23.242;2024-03-08T04:17:58;94000.81;;;5.18;100.00
61128;BME280;47013;42.664;23.242;2024-03-08T04:20:25;93996.53;;;5.10;100.00
61128;BME280;47013;42.664;23.242;2024-03-08T04:22:50;94002.72;;;5.18;100.00
61128;BME280;47013;42.664;23.242;2024-03-08T04:25:16;94005.41;;;5.14;100.00
61128;BME280;47013;42.664;23.242;2024-03-08T04:27:41;93995.56;;;4.92;100.00
61128;BME280;47013;42.664;23.242;2024-03-08T04:30:07;94003.56;;;4.85;100.00
61128;BME280;47013;42.664;23.242;2024-03-08T04:32:33;94014.72;;;4.90;100.00
61128;BME280;47013;42.664;23.242;2024-03-08T04:34:59;94007.13;;;4.96;100.00
61128;BME280;47013;42.664;23.242;2024-03-08T04:37:26;94013.03;;;5.09;100.00
61128;BME280;47013;42.664;23.242;2024-03-08T04:39:51;94022.66;;;5.13;100.00
61128;BME280;47013;42.664;23.242;2024-03-08T04:42:17;94017.69;;;5.15;100.00
61128;BME280;47013;42.664;23.242;2024-03-08T04:44:43;94028.47;;;5.19;100.00
61128;BME280;47013;42.664;23.242;2024-03-08T04:47:08;94026.59;;;5.23;100.00
61128;BME280;47013;42.664;23.242;2024-03-08T04:49:35;94013.94;;;5.23;100.00
61128;BME280;47013;42.664;23.242;2024-03-08T04:52:04;94018.59;;;5.30;100.00
61128;BME280;47013;42.664;23.242;2024-03-08T04:54:30;94021.03;;;5.46;100.00
61128;BME280;47013;42.664;23.242;2024-03-08T04:56:55;94025.28;;;5.47;100.00
61128;BME280;47013;42.664;23.242;2024-03-08T04:59:21;94022.59;;;5.47;100.00
61128;BME280;47013;42.664;23.242;2024-03-08T05:01:47;94025.28;;;5.47;100.00
61128;BME280;47013;42.664;23.242;2024-03-08T05:04:13;94018.34;;;5.42;100.00
61128;BME280;47013;42.664;23.242;2024-03-08T05:06:38;94027.94;;;5.43;100.00
61128;BME280;47013;42.664;23.242;2024-03-08T05:09:04;94017.09;;;5.32;100.00
61128;BME280;47013;42.664;23.242;2024-03-08T05:11:44;94033.69;;;5.42;100.00
61128;BME280;47013;42.664;23.242;2024-03-08T05:14:10;94036.00;;;5.43;100.00
61128;BME280;47013;42.664;23.242;2024-03-08T05:16:36;94038.31;;;5.45;100.00
61128;BME280;47013;42.664;23.242;2024-03-08T05:19:02;94042.13;;;5.40;100.00
61128;BME280;47013;42.664;23.242;2024-03-08T05:21:27;94042.91;;;5.41;100.00
61128;BME280;47013;42.664;23.242;2024-03-08T05:23:54;94048.72;;;5.46;100.00
61128;BME280;47013;42.664;23.242;2024-03-08T05:26:19;94049.13;;;5.48;100.00
61128;BME280;47013;42.664;23.242;2024-03-08T05:28:45;94054.31;;;5.30;100.00
61128;BME280;47013;42.664;23.242;2024-03-08T05:31:20;94061.25;;;5.31;100.00
61128;BME280;47013;42.664;23.242;2024-03-08T05:33:49;94060.34;;;5.20;100.00
61128;BME280;47013;42.664;23.242;2024-03-08T05:36:15;94071.06;;;5.17;100.00
61128;BME280;47013;42.664;23.242;2024-03-08T05:38:42;94070.19;;;5.06;100.00
61128;BME280;47013;42.664;23.242;2024-03-08T05:41:11;94072.13;;;4.75;100.00
61128;BME280;47013;42.664;23.242;2024-03-08T05:43:40;94073.88;;;4.34;100.00
61128;BME280;47013;42.664;23.242;2024-03-08T05:46:06;94078.47;;;4.33;100.00
61128;BME280;47013;42.664;23.242;2024-03-08T05:48:31;94078.91;;;4.39;100.00
61128;BME280;47013;42.664;23.242;2024-03-08T05:51:02;94086.34;;;4.49;100.00
61128;BME280;47013;42.664;23.242;2024-03-08T05:53:28;94089.44;;;4.51;100.00
61128;BME280;47013;42.664;23.242;2024-03-08T05:55:57;94095.22;;;4.53;100.00
61128;BME280;47013;42.664;23.242;2024-03-08T05:58:22;94093.22;;;4.47;100.00
61128;BME280;47013;42.664;23.242;2024-03-08T06:00:48;94088.63;;;4.21;100.00
61128;BME280;47013;42.664;23.242;2024-03-08T06:03:13;94097.47;;;4.21;100.00
61128;BME280;47013;42.664;23.242;2024-03-08T06:05:38;94090.22;;;4.25;100.00
61128;BME280;47013;42.664;23.242;2024-03-08T06:08:07;94095.19;;;4.23;100.00
61128;BME280;47013;42.664;23.242;2024-03-08T06:10:33;94108.81;;;4.37;100.00
61128;BME280;47013;42.664;23.242;2024-03-08T06:12:59;94098.47;;;4.39;100.00
61128;BME280;47013;42.664;23.242;2024-03-08T06:15:25;94117.53;;;4.57;100.00
61128;BME280;47013;42.664;23.242;2024-03-08T06:17:50;94115.72;;;4.65;100.00
61128;BME280;47013;42.664;23.242;2024-03-08T06:20:18;94118.50;;;4.72;100.00
61128;BME280;47013;42.664;23.242;2024-03-08T06:22:43;94115.31;;;4.63;100.00
61128;BME280;47013;42.664;23.242;2024-03-08T06:25:13;94115.63;;;4.58;100.00
61128;BME280;47013;42.664;23.242;2024-03-08T06:27:42;94112.63;;;4.63;100.00
61128;BME280;47013;42.664;23.242;2024-03-08T06:30:12;94111.19;;;4.69;100.00
61128;BME280;47013;42.664;23.242;2024-03-08T06:32:38;94112.81;;;5.07;100.00
61128;BME280;47013;42.664;23.242;2024-03-08T06:35:06;94112.38;;;5.35;100.00
61128;BME280;47013;42.664;23.242;2024-03-08T06:37:35;94116.00;;;5.16;100.00
61128;BME280;47013;42.664;23.242;2024-03-08T06:40:01;94124.78;;;5.13;100.00
61128;BME280;47013;42.664;23.242;2024-03-08T06:42:27;94122.13;;;5.17;100.00
61128;BME280;47013;42.664;23.242;2024-03-08T06:44:53;94119.00;;;5.11;100.00
61128;BME280;47013;42.664;23.242;2024-03-08T06:47:25;94115.91;;;5.09;100.00
61128;BME280;47013;42.664;23.242;2024-03-08T06:49:51;94123.94;;;4.76;100.00
61128;BME280;47013;42.664;23.242;2024-03-08T06:52:17;94128.09;;;4.43;100.00
61128;BME280;47013;42.664;23.242;2024-03-08T06:54:42;94117.69;;;4.41;100.00
61128;BME280;47013;42.664;23.242;2024-03-08T06:57:08;94125.28;;;4.36;100.00
61128;BME280;47013;42.664;23.242;2024-03-08T06:59:35;94128.16;;;4.24;100.00
61128;BME280;47013;42.664;23.242;2024-03-08T07:02:01;94124.28;;;4.21;100.00
61128;BME280;47013;42.664;23.242;2024-03-08T07:04:27;94134.88;;;4.37;100.00
61128;BME280;47013;42.664;23.242;2024-03-08T07:06:55;94136.03;;;4.36;100.00
61128;BME280;47013;42.664;23.242;2024-03-08T07:09:21;94129.91;;;4.39;100.00
61128;BME280;47013;42.664;23.242;2024-03-08T07:11:46;94136.44;;;4.38;100.00
61128;BME280;47013;42.664;23.242;2024-03-08T07:14:12;94130.28;;;4.37;100.00
61128;BME280;47013;42.664;23.242;2024-03-08T07:16:37;94126.88;;;4.40;100.00
61128;BME280;47013;42.664;23.242;2024-03-08T07:19:04;94133.66;;;4.57;100.00
61128;BME280;47013;42.664;23.242;2024-03-08T07:21:30;94132.97;;;4.64;100.00
61128;BME280;47013;42.664;23.242;2024-03-08T07:23:55;94120.78;;;4.17;100.00
61128;BME280;47013;42.664;23.242;2024-03-08T07:26:27;94132.59;;;4.12;100.00
61128;BME280;47013;42.664;23.242;2024-03-08T07:28:53;94128.72;;;4.10;100.00
61128;BME280;47013;42.664;23.242;2024-03-08T07:31:20;94143.31;;;4.35;100.00
61128;BME280;47013;42.664;23.242;2024-03-08T07:33:51;94151.00;;;4.37;100.00
61128;BME280;47013;42.664;23.242;2024-03-08T07:36:18;94148.50;;;4.51;100.00
61128;BME280;47013;42.664;23.242;2024-03-08T07:38:44;94148.06;;;4.72;100.00
61128;BME280;47013;42.664;23.242;2024-03-08T07:41:12;94147.06;;;4.84;100.00
61128;BME280;47013;42.664;23.242;2024-03-08T07:43:38;94146.91;;;4.73;100.00
61128;BME280;47013;42.664;23.242;2024-03-08T07:46:03;94150.47;;;4.81;100.00
61128;BME280;47013;42.664;23.242;2024-03-08T07:48:29;94156.38;;;4.93;100.00
61128;BME280;47013;42.664;23.242;2024-03-08T07:50:55;94151.81;;;4.67;100.00
61128;BME280;47013;42.664;23.242;2024-03-08T07:53:22;94152.00;;;4.82;100.00
61128;BME280;47013;42.664;23.242;2024-03-08T07:55:49;94137.47;;;4.56;100.00
61128;BME280;47013;42.664;23.242;2024-03-08T07:58:15;94151.66;;;4.83;100.00
61128;BME280;47013;42.664;23.242;2024-03-08T08:00:40;94142.13;;;4.59;100.00
61128;BME280;47013;42.664;23.242;2024-03-08T08:03:08;94150.22;;;4.13;100.00
61128;BME280;47013;42.664;23.242;2024-03-08T08:05:34;94147.91;;;3.89;100.00
61128;BME280;47013;42.664;23.242;2024-03-08T08:08:01;94145.22;;;4.12;100.00
61128;BME280;47013;42.664;23.242;2024-03-08T08:10:28;94148.50;;;4.25;100.00
61128;BME280;47013;42.664;23.242;2024-03-08T08:12:54;94145.66;;;4.40;100.00
61128;BME280;47013;42.664;23.242;2024-03-08T08:15:19;94144.31;;;4.54;100.00
61128;BME280;47013;42.664;23.242;2024-03-08T08:17:45;94140.63;;;4.62;100.00
61128;BME280;47013;42.664;23.242;2024-03-08T08:20:11;94159.38;;;4.85;100.00
61128;BME280;47013;42.664;23.242;2024-03-08T08:22:41;94152.38;;;4.27;100.00
61128;BME280;47013;42.664;23.242;2024-03-08T08:25:08;94160.59;;;4.15;100.00
61128;BME280;47013;42.664;23.242;2024-03-08T08:27:34;94152.25;;;4.69;100.00
61128;BME280;47013;42.664;23.242;2024-03-08T08:30:02;94154.28;;;5.73;100.00
61128;BME280;47013;42.664;23.242;2024-03-08T08:32:28;94152.66;;;5.31;100.00
61128;BME280;47013;42.664;23.242;2024-03-08T08:34:53;94151.84;;;5.27;100.00
61128;BME280;47013;42.664;23.242;2024-03-08T08:37:18;94152.31;;;5.03;100.00
61128;BME280;47013;42.664;23.242;2024-03-08T08:39:44;94145.56;;;4.86;100.00
61128;BME280;47013;42.664;23.242;2024-03-08T08:42:09;94143.56;;;5.10;100.00
61128;BME280;47013;42.664;23.242;2024-03-08T08:44:35;94146.19;;;5.36;100.00
61128;BME280;47013;42.664;23.242;2024-03-08T08:47:01;94124.94;;;5.24;100.00
61128;BME280;47013;42.664;23.242;2024-03-08T08:49:28;94147.91;;;5.51;100.00
61128;BME280;47013;42.664;23.242;2024-03-08T08:51:55;94142.63;;;5.62;100.00
61128;BME280;47013;42.664;23.242;2024-03-08T08:54:23;94132.78;;;5.73;100.00
61128;BME280;47013;42.664;23.242;2024-03-08T08:56:50;94147.69;;;6.04;100.00
61128;BME280;47013;42.664;23.242;2024-03-08T08:59:16;94129.78;;;5.85;100.00
61128;BME280;47013;42.664;23.242;2024-03-08T09:01:44;94142.31;;;6.08;100.00
61128;BME280;47013;42.664;23.242;2024-03-08T09:04:12;94144.00;;;6.23;100.00
61128;BME280;47013;42.664;23.242;2024-03-08T09:06:37;94148.31;;;6.31;100.00
61128;BME280;47013;42.664;23.242;2024-03-08T09:09:03;94145.59;;;6.28;99.67
61128;BME280;47013;42.664;23.242;2024-03-08T09:11:30;94140.72;;;6.47;99.57
61128;BME280;47013;42.664;23.242;2024-03-08T09:13:56;94141.22;;;6.64;97.79
61128;BME280;47013;42.664;23.242;2024-03-08T09:16:21;94130.13;;;6.72;97.06
61128;BME280;47013;42.664;23.242;2024-03-08T09:18:46;94131.81;;;5.92;94.14
61128;BME280;47013;42.664;23.242;2024-03-08T09:21:13;94137.84;;;6.22;94.64
61128;BME280;47013;42.664;23.242;2024-03-08T09:23:39;94138.19;;;5.77;95.17
61128;BME280;47013;42.664;23.242;2024-03-08T09:26:05;94135.44;;;6.10;96.08
61128;BME280;47013;42.664;23.242;2024-03-08T09:28:34;94138.53;;;6.12;94.67
61128;BME280;47013;42.664;23.242;2024-03-08T09:30:59;94128.34;;;5.91;93.62
61128;BME280;47013;42.664;23.242;2024-03-08T09:33:29;94128.97;;;6.18;100.00
61128;BME280;47013;42.664;23.242;2024-03-08T09:35:54;94138.00;;;5.96;93.83
61128;BME280;47013;42.664;23.242;2024-03-08T09:38:22;94146.34;;;5.87;92.80
61128;BME280;47013;42.664;23.242;2024-03-08T09:40:50;94144.31;;;6.14;94.13
61128;BME280;47013;42.664;23.242;2024-03-08T09:43:16;94141.16;;;6.53;94.42
61128;BME280;47013;42.664;23.242;2024-03-08T09:45:42;94140.53;;;6.74;92.65
61128;BME280;47013;42.664;23.242;2024-03-08T09:48:11;94129.63;;;6.56;88.33
61128;BME280;47013;42.664;23.242;2024-03-08T09:50:40;94139.91;;;7.02;89.71
61128;BME280;47013;42.664;23.242;2024-03-08T09:53:06;94145.41;;;7.23;88.80
61128;BME280;47013;42.664;23.242;2024-03-08T09:55:38;94136.59;;;7.37;90.68
61128;BME280;47013;42.664;23.242;2024-03-08T09:58:08;94140.84;;;7.38;86.77
61128;BME280;47013;42.664;23.242;2024-03-08T10:00:56;94145.94;;;7.61;87.09
61128;BME280;47013;42.664;23.242;2024-03-08T10:03:23;94146.63;;;7.29;83.41
61128;BME280;47013;42.664;23.242;2024-03-08T10:05:48;94134.78;;;7.55;85.66
61128;BME280;47013;42.664;23.242;2024-03-08T10:08:14;94135.63;;;7.98;84.29
61128;BME280;47013;42.664;23.242;2024-03-08T10:10:39;94137.47;;;7.62;81.63
61128;BME280;47013;42.664;23.242;2024-03-08T10:13:09;94141.22;;;7.33;82.09
61128;BME280;47013;42.664;23.242;2024-03-08T10:15:36;94132.44;;;7.54;82.83
61128;BME280;47013;42.664;23.242;2024-03-08T10:18:01;94138.28;;;7.77;81.83
61128;BME280;47013;42.664;23.242;2024-03-08T10:20:31;94139.13;;;8.17;82.92
61128;BME280;47013;42.664;23.242;2024-03-08T10:23:03;94135.31;;;8.53;81.75
61128;BME280;47013;42.664;23.242;2024-03-08T10:25:33;94134.53;;;8.46;80.12
61128;BME280;47013;42.664;23.242;2024-03-08T10:27:59;94135.69;;;8.41;77.72
61128;BME280;47013;42.664;23.242;2024-03-08T10:30:25;94134.91;;;8.76;80.50
61128;BME280;47013;42.664;23.242;2024-03-08T10:32:50;94136.03;;;8.93;78.15
61128;BME280;47013;42.664;23.242;2024-03-08T10:35:17;94136.78;;;8.94;74.97
61128;BME280;47013;42.664;23.242;2024-03-08T10:37:48;94131.34;;;9.15;74.54
61128;BME280;47013;42.664;23.242;2024-03-08T10:40:18;94121.69;;;9.07;71.19
61128;BME280;47013;42.664;23.242;2024-03-08T10:42:52;94126.00;;;8.69;73.26
61128;BME280;47013;42.664;23.242;2024-03-08T10:45:39;94124.88;;;8.45;73.89
61128;BME280;47013;42.664;23.242;2024-03-08T10:48:29;94117.91;;;8.58;75.82
61128;BME280;47013;42.664;23.242;2024-03-08T10:51:02;94114.03;;;8.70;76.05
61128;BME280;47013;42.664;23.242;2024-03-08T10:53:28;94114.75;;;8.95;76.23
61128;BME280;47013;42.664;23.242;2024-03-08T10:55:56;94115.91;;;9.12;74.42
61128;BME280;47013;42.664;23.242;2024-03-08T10:58:24;94108.84;;;9.32;73.50
61128;BME280;47013;42.664;23.242;2024-03-08T11:00:52;94107.38;;;9.94;74.24
61128;BME280;47013;42.664;23.242;2024-03-08T11:06:07;94105.78;;;10.03;65.79
61128;BME280;47013;42.664;23.242;2024-03-08T11:08:36;94104.22;;;10.02;66.91
61128;BME280;47013;42.664;23.242;2024-03-08T11:11:01;94072.16;;;9.97;65.18
61128;BME280;47013;42.664;23.242;2024-03-08T11:13:37;94098.31;;;10.67;67.63
61128;BME280;47013;42.664;23.242;2024-03-08T11:16:11;94089.44;;;11.38;64.91
61128;BME280;47013;42.664;23.242;2024-03-08T11:18:37;94089.22;;;11.56;58.71
61128;BME280;47013;42.664;23.242;2024-03-08T11:21:08;94088.22;;;12.03;60.12
61128;BME280;47013;42.664;23.242;2024-03-08T11:23:37;94080.56;;;12.22;55.97
61128;BME280;47013;42.664;23.242;2024-03-08T11:26:03;94082.44;;;12.52;53.88
61128;BME280;47013;42.664;23.242;2024-03-08T11:28:32;94076.00;;;12.65;51.02
61128;BME280;47013;42.664;23.242;2024-03-08T11:33:27;94071.97;;;12.50;51.57
61128;BME280;47013;42.664;23.242;2024-03-08T11:36:08;94063.81;;;12.00;54.79
61128;BME280;47013;42.664;23.242;2024-03-08T11:38:41;94074.66;;;11.73;58.73
61128;BME280;47013;42.664;23.242;2024-03-08T11:41:07;94068.34;;;12.33;57.08
61128;BME280;47013;42.664;23.242;2024-03-08T11:43:33;94074.03;;;12.66;54.95
61128;BME280;47013;42.664;23.242;2024-03-08T11:46:08;94069.72;;;12.45;53.19
61128;BME280;47013;42.664;23.242;2024-03-08T11:48:34;94063.06;;;11.69;53.54
61128;BME280;47013;42.664;23.242;2024-03-08T11:51:01;94068.03;;;11.43;56.66
61128;BME280;47013;42.664;23.242;2024-03-08T11:53:28;94058.50;;;10.60;57.09
61128;BME280;47013;42.664;23.242;2024-03-08T11:55:53;94074.19;;;10.42;60.73
61128;BME280;47013;42.664;23.242;2024-03-08T11:58:19;94074.38;;;10.99;62.09
61128;BME280;47013;42.664;23.242;2024-03-08T12:00:44;94063.97;;;11.28;61.04
61128;BME280;47013;42.664;23.242;2024-03-08T12:03:11;94057.59;;;11.72;60.04
61128;BME280;47013;42.664;23.242;2024-03-08T12:05:37;94064.19;;;12.02;56.96
61128;BME280;47013;42.664;23.242;2024-03-08T12:08:03;94065.41;;;12.24;55.76
61128;BME280;47013;42.664;23.242;2024-03-08T12:10:32;94054.91;;;11.99;53.52
61128;BME280;47013;42.664;23.242;2024-03-08T12:13:00;94064.09;;;12.32;54.83
61128;BME280;47013;42.664;23.242;2024-03-08T12:15:25;94061.41;;;12.76;54.09
61128;BME280;47013;42.664;23.242;2024-03-08T12:17:53;94058.72;;;12.52;51.06
61128;BME280;47013;42.664;23.242;2024-03-08T12:22:50;94065.59;;;13.04;51.15
61128;BME280;47013;42.664;23.242;2024-03-08T12:25:21;94062.22;;;12.96;51.45
61128;BME280;47013;42.664;23.242;2024-03-08T12:27:47;94057.38;;;11.90;52.26
61128;BME280;47013;42.664;23.242;2024-03-08T12:30:23;94054.81;;;12.53;53.96
61128;BME280;47013;42.664;23.242;2024-03-08T12:33:00;94050.84;;;12.81;52.35
61128;BME280;47013;42.664;23.242;2024-03-08T12:35:27;94051.63;;;12.58;52.83
61128;BME280;47013;42.664;23.242;2024-03-08T12:37:54;94054.81;;;12.96;52.20
61128;BME280;47013;42.664;23.242;2024-03-08T12:40:27;94053.25;;;12.05;52.37
61128;BME280;47013;42.664;23.242;2024-03-08T12:43:00;94044.25;;;12.08;52.72
61128;BME280;47013;42.664;23.242;2024-03-08T12:45:26;94040.22;;;12.67;52.53
61128;BME280;47013;42.664;23.242;2024-03-08T12:47:52;94042.59;;;12.85;51.37
61128;BME280;47013;42.664;23.242;2024-03-08T12:50:19;94032.31;;;12.73;50.45
61128;BME280;47013;42.664;23.242;2024-03-08T12:52:44;94035.53;;;13.31;48.45
61128;BME280;47013;42.664;23.242;2024-03-08T12:55:10;94015.31;;;13.68;46.95
61128;BME280;47013;42.664;23.242;2024-03-08T12:57:36;94037.28;;;13.77;46.61
61128;BME280;47013;42.664;23.242;2024-03-08T13:00:04;94040.88;;;13.54;44.69